createdAt,value
2022-10-21T00:02:22.292Z,99.90
2022-10-21T00:04:49.070Z,99.90
2022-10-21T00:07:15.789Z,99.90
2022-10-21T00:09:42.442Z,99.90
2022-10-21T00:12:09.178Z,99.90
2022-10-21T00:14:35.834Z,99.90
2022-10-21T00:17:02.636Z,99.90
2022-10-21T00:19:29.311Z,99.90
2022-10-21T00:21:56.073Z,99.90
2022-10-21T00:24:22.731Z,99.90
2022-10-21T00:26:49.972Z,99.90
2022-10-21T00:29:16.669Z,99.90
2022-10-21T00:31:43.448Z,99.90
2022-10-21T00:34:10.202Z,99.90
2022-10-21T00:36:36.938Z,99.90
2022-10-21T00:39:03.698Z,99.90
2022-10-21T00:41:30.395Z,99.90
2022-10-21T00:43:57.053Z,99.90
2022-10-21T00:46:27.887Z,99.90
2022-10-21T00:48:57.605Z,99.90
2022-10-21T00:51:24.487Z,99.90
2022-10-21T00:53:51.713Z,99.90
2022-10-21T00:56:24.091Z,99.90
2022-10-21T00:58:51.723Z,99.90
2022-10-21T01:01:21.397Z,99.90
2022-10-21T01:03:49.634Z,99.90
2022-10-21T01:06:16.878Z,99.90
2022-10-21T01:08:43.756Z,99.90
2022-10-21T01:11:16.091Z,99.90
2022-10-21T01:14:01.097Z,99.90
2022-10-21T01:16:44.288Z,99.90
2022-10-21T01:19:33.332Z,99.90
2022-10-21T01:22:10.885Z,99.90
2022-10-21T01:24:50.334Z,99.90
2022-10-21T01:27:32.928Z,99.90
2022-10-21T01:30:08.699Z,99.90
2022-10-21T01:32:40.613Z,99.90
2022-10-21T01:35:23.884Z,99.90
2022-10-21T01:38:12.447Z,99.90
2022-10-21T01:40:44.113Z,99.90
2022-10-21T01:43:16.076Z,99.90
2022-10-21T01:45:45.785Z,99.90
2022-10-21T01:48:14.465Z,99.90
2022-10-21T01:50:44.224Z,99.90
2022-10-21T01:53:13.248Z,99.90
2022-10-21T01:55:40.855Z,99.90
2022-10-21T01:58:09.323Z,99.90
2022-10-21T02:00:37.074Z,99.90
2022-10-21T02:03:08.368Z,99.90
2022-10-21T02:05:35.063Z,99.90
2022-10-21T02:08:01.814Z,99.90
2022-10-21T02:10:31.936Z,99.90
2022-10-21T02:12:59.985Z,99.90
2022-10-21T02:15:28.018Z,99.90
2022-10-21T02:17:57.714Z,99.90
2022-10-21T02:20:27.265Z,99.90
2022-10-21T02:22:53.957Z,99.90
2022-10-21T02:25:22.467Z,99.90
2022-10-21T02:27:50.346Z,99.90
2022-10-21T02:30:17.126Z,99.90
2022-10-21T02:32:43.818Z,99.90
2022-10-21T02:35:17.051Z,99.90
2022-10-21T02:37:44.033Z,99.90
2022-10-21T02:40:36.990Z,99.90
2022-10-21T02:43:05.834Z,99.90
2022-10-21T02:45:33.144Z,99.90
2022-10-21T02:47:59.810Z,99.90
2022-10-21T02:50:26.485Z,99.90
2022-10-21T02:52:53.229Z,99.90
2022-10-21T02:55:20.036Z,99.90
2022-10-21T02:57:46.749Z,99.90
2022-10-21T03:00:13.620Z,99.90
2022-10-21T03:02:42.071Z,99.90
2022-10-21T03:05:09.404Z,99.90
2022-10-21T03:07:36.310Z,99.90
2022-10-21T03:10:03.556Z,99.90
2022-10-21T03:12:30.226Z,99.90
2022-10-21T03:14:56.979Z,99.90
2022-10-21T03:17:25.255Z,99.90
2022-10-21T03:19:52.181Z,99.90
2022-10-21T03:22:18.921Z,99.90
2022-10-21T03:24:45.606Z,99.90
2022-10-21T03:27:12.276Z,99.90
2022-10-21T03:29:38.918Z,99.90
2022-10-21T03:32:05.672Z,99.90
2022-10-21T03:34:32.381Z,99.90
2022-10-21T03:36:59.066Z,99.90
2022-10-21T03:39:25.714Z,99.90
2022-10-21T03:41:52.438Z,99.90
2022-10-21T03:44:19.218Z,99.90
2022-10-21T03:46:45.885Z,99.90
2022-10-21T03:49:20.061Z,99.90
2022-10-21T03:51:49.291Z,99.90
2022-10-21T03:54:16.046Z,99.90
2022-10-21T03:56:42.726Z,99.90
2022-10-21T03:59:09.622Z,99.90
2022-10-21T04:01:36.772Z,99.90
2022-10-21T04:04:03.506Z,99.90
2022-10-21T04:06:30.161Z,99.90
2022-10-21T04:08:56.848Z,99.90
2022-10-21T04:11:23.629Z,99.90
2022-10-21T04:13:50.342Z,99.90
2022-10-21T04:16:18.512Z,99.90
2022-10-21T04:18:45.244Z,99.90
2022-10-21T04:21:12.373Z,99.90
2022-10-21T04:23:39.116Z,99.90
2022-10-21T04:26:06.484Z,99.90
2022-10-21T04:28:33.458Z,99.90
2022-10-21T04:31:00.181Z,99.90
2022-10-21T04:33:27.918Z,99.90
2022-10-21T04:35:55.469Z,99.90
2022-10-21T04:38:22.821Z,99.90
2022-10-21T04:40:56.756Z,99.90
2022-10-21T04:43:24.575Z,99.90
2022-10-21T04:45:51.480Z,99.90
2022-10-21T04:48:18.195Z,99.90
2022-10-21T04:50:44.848Z,99.90
2022-10-21T04:53:11.538Z,99.90
2022-10-21T04:55:39.249Z,99.90
2022-10-21T04:58:06.098Z,99.90
2022-10-21T05:00:33.008Z,99.90
2022-10-21T05:02:59.976Z,99.90
2022-10-21T05:05:26.758Z,99.90
2022-10-21T05:07:53.496Z,99.90
2022-10-21T05:10:20.317Z,99.90
2022-10-21T05:12:47.419Z,99.90
2022-10-21T05:15:14.603Z,99.90
2022-10-21T05:17:42.023Z,99.90
2022-10-21T05:20:09.343Z,99.90
2022-10-21T05:22:36.512Z,99.90
2022-10-21T05:25:03.656Z,99.90
2022-10-21T05:27:30.381Z,99.90
2022-10-21T05:29:58.338Z,99.90
2022-10-21T05:32:25.281Z,99.90
2022-10-21T05:34:52.063Z,99.90
2022-10-21T05:37:18.854Z,99.90
2022-10-21T05:39:45.682Z,99.90
2022-10-21T05:42:12.442Z,99.90
2022-10-21T05:44:39.126Z,99.90
2022-10-21T05:47:05.750Z,99.90
2022-10-21T05:49:32.465Z,99.90
2022-10-21T05:51:59.119Z,99.90
2022-10-21T05:54:25.893Z,99.90
2022-10-21T05:56:55.287Z,99.90
2022-10-21T05:59:22.544Z,99.90
2022-10-21T06:01:49.207Z,99.90
2022-10-21T06:04:15.840Z,99.90
2022-10-21T06:06:42.495Z,99.90
2022-10-21T06:09:09.250Z,99.90
2022-10-21T06:11:35.949Z,99.90
2022-10-21T06:14:02.600Z,99.90
2022-10-21T06:16:29.280Z,99.90
2022-10-21T06:18:56.074Z,99.90
2022-10-21T06:21:22.878Z,99.90
2022-10-21T06:23:52.573Z,99.90
2022-10-21T06:26:19.315Z,99.90
2022-10-21T06:28:46.386Z,99.90
2022-10-21T06:31:14.356Z,99.90
2022-10-21T06:33:41.354Z,99.90
2022-10-21T06:36:08.229Z,99.90
2022-10-21T06:38:36.917Z,99.90
2022-10-21T06:41:09.082Z,99.90
2022-10-21T06:43:39.006Z,99.90
2022-10-21T06:46:08.105Z,99.90
2022-10-21T06:48:35.036Z,99.90
2022-10-21T06:51:06.857Z,99.90
2022-10-21T06:53:36.590Z,99.90
2022-10-21T06:56:10.807Z,99.90
2022-10-21T06:58:38.059Z,99.90
2022-10-21T07:01:16.554Z,99.90
2022-10-21T07:03:55.066Z,99.90
2022-10-21T07:06:22.635Z,99.90
2022-10-21T07:08:57.982Z,99.90
2022-10-21T07:11:25.525Z,99.90
2022-10-21T07:13:52.175Z,99.90
2022-10-21T07:16:24.015Z,99.90
2022-10-21T07:18:50.792Z,99.90
2022-10-21T07:21:18.532Z,99.90
2022-10-21T07:23:46.094Z,99.90
2022-10-21T07:26:13.573Z,99.90
2022-10-21T07:28:42.154Z,99.90
2022-10-21T07:31:09.078Z,99.90
2022-10-21T07:33:35.886Z,99.90
2022-10-21T07:36:13.657Z,99.90
2022-10-21T07:38:41.379Z,99.90
2022-10-21T07:41:08.062Z,99.90
2022-10-21T07:43:34.772Z,99.90
2022-10-21T07:46:04.403Z,99.90
2022-10-21T07:48:33.515Z,99.90
2022-10-21T07:51:07.704Z,99.90
2022-10-21T07:53:34.715Z,99.90
2022-10-21T07:56:02.651Z,99.90
2022-10-21T07:58:30.223Z,99.90
2022-10-21T08:01:01.240Z,99.90
2022-10-21T08:03:28.039Z,99.90
2022-10-21T08:05:55.319Z,99.50
2022-10-21T08:08:22.161Z,95.20
2022-10-21T08:13:21.552Z,94.20
2022-10-21T08:15:52.976Z,94.40
2022-10-21T08:18:19.964Z,93.90
2022-10-21T08:20:47.208Z,95.60
2022-10-21T08:23:14.975Z,97.20
2022-10-21T08:25:56.314Z,98.10
2022-10-21T08:28:24.562Z,98.90
2022-10-21T08:30:51.753Z,99.20
2022-10-21T08:33:18.723Z,98.50
2022-10-21T08:35:45.542Z,97.60
2022-10-21T08:38:13.077Z,96.90
2022-10-21T08:40:47.280Z,95.80
2022-10-21T08:43:20.028Z,95.00
2022-10-21T08:45:58.097Z,94.20
2022-10-21T08:48:29.467Z,92.20
2022-10-21T08:50:58.282Z,92.50
2022-10-21T08:53:25.891Z,93.00
2022-10-21T08:56:00.673Z,94.50
2022-10-21T08:58:27.520Z,96.00
2022-10-21T09:01:06.606Z,96.60
2022-10-21T09:03:54.491Z,97.20
2022-10-21T09:06:24.222Z,97.40
2022-10-21T09:08:57.549Z,98.10
2022-10-21T09:11:33.486Z,98.80
2022-10-21T09:14:09.506Z,99.90
2022-10-21T09:16:56.456Z,99.90
2022-10-21T09:19:23.132Z,99.90
2022-10-21T09:22:40.541Z,99.90
2022-10-21T09:25:29.089Z,99.90
2022-10-21T09:27:57.253Z,99.90
2022-10-21T09:30:24.537Z,99.90
2022-10-21T09:32:55.361Z,99.90
2022-10-21T09:35:41.007Z,99.90
2022-10-21T09:38:10.660Z,99.90
2022-10-21T09:40:37.328Z,99.90
2022-10-21T09:43:04.906Z,99.90
2022-10-21T09:45:38.867Z,99.90
2022-10-21T09:48:17.837Z,99.90
2022-10-21T09:50:49.778Z,99.90
2022-10-21T09:53:33.139Z,99.90
2022-10-21T09:56:04.823Z,99.90
2022-10-21T09:58:37.711Z,99.90
2022-10-21T10:01:05.555Z,99.90
2022-10-21T10:03:36.598Z,99.90
2022-10-21T10:06:05.389Z,99.90
2022-10-21T10:08:34.246Z,99.90
2022-10-21T10:11:02.195Z,99.90
2022-10-21T10:13:31.482Z,99.90
2022-10-21T10:16:18.464Z,99.90
2022-10-21T10:18:45.564Z,99.90
2022-10-21T10:21:15.122Z,99.90
2022-10-21T10:23:46.134Z,99.90
2022-10-21T10:26:33.221Z,99.90
2022-10-21T10:29:09.358Z,99.90
2022-10-21T10:31:37.124Z,99.90
2022-10-21T10:34:08.110Z,99.90
2022-10-21T10:36:36.830Z,99.90
2022-10-21T10:39:07.629Z,99.90
2022-10-21T10:41:36.406Z,99.90
2022-10-21T10:44:09.000Z,99.90
2022-10-21T10:46:36.391Z,99.90
2022-10-21T10:49:12.575Z,99.90
2022-10-21T10:51:42.454Z,99.90
2022-10-21T10:54:15.153Z,99.90
2022-10-21T10:56:59.393Z,99.90
2022-10-21T10:59:32.296Z,99.90
2022-10-21T11:02:08.154Z,99.90
2022-10-21T11:07:44.428Z,99.90
2022-10-21T11:10:25.070Z,99.90
2022-10-21T11:12:51.815Z,99.90
2022-10-21T11:15:20.202Z,99.90
2022-10-21T11:17:54.169Z,99.90
2022-10-21T11:20:27.968Z,99.90
2022-10-21T11:23:13.582Z,99.90
2022-10-21T11:25:44.711Z,99.90
2022-10-21T11:28:11.500Z,99.90
2022-10-21T11:31:04.067Z,99.90
2022-10-21T11:33:36.929Z,99.90
2022-10-21T11:36:04.651Z,99.90
2022-10-21T11:38:40.880Z,99.90
2022-10-21T11:41:07.653Z,99.90
2022-10-21T11:43:43.420Z,99.90
2022-10-21T11:46:32.952Z,99.90
2022-10-21T11:49:12.131Z,99.90
2022-10-21T11:52:05.470Z,99.90
2022-10-21T11:54:56.584Z,99.90
2022-10-21T11:57:38.138Z,99.90
2022-10-21T12:00:17.811Z,99.90
2022-10-21T12:02:46.463Z,99.90
2022-10-21T12:05:33.876Z,99.90
2022-10-21T12:08:03.734Z,99.90
2022-10-21T12:10:33.432Z,99.90
2022-10-21T12:13:15.707Z,99.90
2022-10-21T12:16:02.711Z,99.90
2022-10-21T12:18:30.160Z,99.90
2022-10-21T12:20:58.428Z,99.90
2022-10-21T12:23:26.089Z,99.90
2022-10-21T12:26:05.112Z,99.90
2022-10-21T12:28:50.751Z,99.90
2022-10-21T12:31:30.629Z,99.90
2022-10-21T12:33:57.783Z,99.90
2022-10-21T12:36:24.796Z,99.90
2022-10-21T12:38:53.089Z,99.90
2022-10-21T12:41:21.203Z,99.90
2022-10-21T12:43:58.237Z,99.90
2022-10-21T12:46:26.891Z,99.90
2022-10-21T12:48:53.947Z,99.90
2022-10-21T12:51:26.279Z,99.90
2022-10-21T12:54:02.420Z,99.90
2022-10-21T12:56:34.382Z,99.90
2022-10-21T12:59:03.525Z,99.90
2022-10-21T13:01:36.144Z,99.90
2022-10-21T13:04:03.333Z,99.90
2022-10-21T13:06:49.767Z,99.90
2022-10-21T13:09:35.560Z,99.90
2022-10-21T13:12:04.833Z,99.90
2022-10-21T13:14:39.754Z,99.90
2022-10-21T13:17:26.345Z,99.90
2022-10-21T13:20:17.272Z,99.90
2022-10-21T13:22:48.948Z,99.90
2022-10-21T13:25:16.339Z,99.90
2022-10-21T13:27:46.736Z,99.90
2022-10-21T13:30:29.102Z,99.90
2022-10-21T13:33:04.132Z,99.90
2022-10-21T13:35:36.841Z,99.90
2022-10-21T13:38:24.829Z,99.90
2022-10-21T13:40:55.527Z,99.90
2022-10-21T13:43:33.342Z,99.90
2022-10-21T13:46:19.588Z,99.90
2022-10-21T13:48:49.006Z,99.90
2022-10-21T13:51:26.516Z,99.90
2022-10-21T13:53:54.685Z,99.90
2022-10-21T13:56:25.121Z,99.90
2022-10-21T13:58:53.449Z,99.90
2022-10-21T14:01:26.276Z,99.90
2022-10-21T14:03:54.069Z,99.90
2022-10-21T14:06:26.803Z,99.90
2022-10-21T14:08:56.368Z,99.90
2022-10-21T14:11:27.791Z,99.90
2022-10-21T14:13:59.842Z,99.90
2022-10-21T14:16:39.080Z,99.90
2022-10-21T14:19:08.149Z,99.90
2022-10-21T14:21:38.980Z,99.90
2022-10-21T14:24:06.127Z,99.90
2022-10-21T14:26:33.477Z,99.90
2022-10-21T14:29:00.987Z,99.90
2022-10-21T14:31:28.193Z,99.90
2022-10-21T14:33:55.118Z,99.90
2022-10-21T14:36:26.268Z,99.90
2022-10-21T14:38:56.938Z,99.90
2022-10-21T14:41:32.943Z,99.90
2022-10-21T14:44:14.853Z,99.90
2022-10-21T14:46:45.574Z,99.90
2022-10-21T14:49:26.687Z,99.90
2022-10-21T14:52:07.802Z,99.90
2022-10-21T14:54:42.938Z,99.90
2022-10-21T14:57:29.408Z,99.90
2022-10-21T14:59:56.611Z,99.90
2022-10-21T15:02:27.134Z,99.90
2022-10-21T15:04:58.474Z,99.90
2022-10-21T15:07:30.607Z,99.90
2022-10-21T15:09:58.426Z,99.90
2022-10-21T15:12:25.296Z,99.90
2022-10-21T15:15:05.545Z,99.90
2022-10-21T15:17:33.271Z,99.90
2022-10-21T15:20:00.266Z,99.90
2022-10-21T15:22:35.434Z,99.90
2022-10-21T15:25:13.945Z,99.90
2022-10-21T15:27:43.022Z,99.90
2022-10-21T15:30:13.179Z,99.90
2022-10-21T15:32:40.004Z,99.90
2022-10-21T15:35:12.457Z,99.90
2022-10-21T15:37:39.457Z,99.90
2022-10-21T15:40:06.574Z,99.90
2022-10-21T15:42:33.439Z,99.90
2022-10-21T15:45:02.083Z,99.90
2022-10-21T15:47:28.840Z,99.90
2022-10-21T15:49:56.251Z,99.90
2022-10-21T15:52:23.089Z,99.90
2022-10-21T15:54:50.285Z,99.90
2022-10-21T15:57:21.005Z,99.90
2022-10-21T15:59:48.222Z,99.90
2022-10-21T16:02:17.159Z,99.90
2022-10-21T16:04:45.021Z,99.90
2022-10-21T16:07:22.547Z,99.90
2022-10-21T16:09:49.376Z,99.90
2022-10-21T16:12:17.707Z,99.90
2022-10-21T16:14:44.460Z,99.90
2022-10-21T16:17:11.668Z,99.90
2022-10-21T16:19:38.369Z,99.90
2022-10-21T16:22:12.912Z,99.90
2022-10-21T16:24:39.628Z,99.90
2022-10-21T16:27:10.177Z,99.90
2022-10-21T16:29:37.005Z,99.90
2022-10-21T16:32:03.724Z,99.90
2022-10-21T16:34:30.394Z,99.90
2022-10-21T16:36:57.147Z,99.90
2022-10-21T16:39:25.586Z,99.90
2022-10-21T16:41:52.556Z,99.90
2022-10-21T16:44:19.683Z,99.90
2022-10-21T16:46:51.097Z,99.90
2022-10-21T16:49:27.398Z,99.90
2022-10-21T16:51:54.663Z,99.90
2022-10-21T16:54:22.507Z,99.90
2022-10-21T16:56:52.093Z,99.90
2022-10-21T16:59:21.723Z,99.90
2022-10-21T17:01:48.493Z,99.90
2022-10-21T17:04:15.290Z,99.90
2022-10-21T17:06:42.065Z,99.90
2022-10-21T17:09:09.142Z,99.90
2022-10-21T17:11:37.086Z,99.90
2022-10-21T17:14:05.535Z,99.90
2022-10-21T17:16:32.355Z,99.90
2022-10-21T17:18:59.114Z,99.90
2022-10-21T17:21:27.104Z,99.90
2022-10-21T17:23:54.625Z,99.90
2022-10-21T17:26:21.379Z,99.90
2022-10-21T17:28:48.088Z,99.90
2022-10-21T17:31:19.079Z,99.90
2022-10-21T17:33:47.264Z,99.90
2022-10-21T17:36:14.528Z,99.90
2022-10-21T17:38:42.171Z,99.90
2022-10-21T17:41:09.638Z,99.90
2022-10-21T17:43:36.589Z,99.90
2022-10-21T17:46:03.497Z,99.90
2022-10-21T17:48:30.270Z,99.90
2022-10-21T17:50:58.220Z,99.90
2022-10-21T17:53:25.608Z,99.90
2022-10-21T17:55:56.358Z,99.90
2022-10-21T17:58:23.049Z,99.90
2022-10-21T18:00:49.751Z,99.90
2022-10-21T18:03:18.273Z,99.90
2022-10-21T18:05:45.386Z,99.90
2022-10-21T18:08:12.118Z,99.90
2022-10-21T18:10:38.848Z,99.90
2022-10-21T18:13:05.513Z,99.90
2022-10-21T18:15:32.342Z,99.90
2022-10-21T18:17:59.257Z,99.90
2022-10-21T18:20:26.185Z,99.90
2022-10-21T18:22:53.213Z,99.90
2022-10-21T18:25:20.101Z,99.90
2022-10-21T18:27:47.045Z,99.90
2022-10-21T18:30:13.753Z,99.90
2022-10-21T18:32:41.027Z,99.90
2022-10-21T18:35:08.437Z,99.90
2022-10-21T18:37:35.406Z,99.90
2022-10-21T18:40:03.872Z,99.90
2022-10-21T18:42:30.623Z,99.90
2022-10-21T18:44:57.395Z,99.90
2022-10-21T18:47:24.265Z,99.90
2022-10-21T18:49:51.181Z,99.90
2022-10-21T18:52:17.882Z,99.90
2022-10-21T18:54:44.558Z,99.90
2022-10-21T18:57:12.814Z,99.90
2022-10-21T18:59:39.709Z,99.90
2022-10-21T19:02:09.739Z,99.90
2022-10-21T19:04:38.896Z,99.90
2022-10-21T19:07:05.866Z,99.90
2022-10-21T19:09:32.664Z,99.90
2022-10-21T19:12:00.855Z,99.90
2022-10-21T19:14:28.528Z,99.90
2022-10-21T19:16:55.227Z,99.90
2022-10-21T19:19:22.045Z,99.90
2022-10-21T19:21:48.730Z,99.90
2022-10-21T19:24:15.526Z,99.90
2022-10-21T19:26:44.081Z,99.90
2022-10-21T19:29:13.359Z,99.90
2022-10-21T19:31:41.218Z,99.90
2022-10-21T19:34:08.190Z,99.90
2022-10-21T19:36:35.081Z,99.90
2022-10-21T19:39:01.787Z,99.90
2022-10-21T19:41:28.588Z,99.90
2022-10-21T19:43:58.356Z,99.90
2022-10-21T19:46:26.297Z,99.90
2022-10-21T19:48:53.411Z,99.90
2022-10-21T19:51:21.287Z,99.90
2022-10-21T19:53:48.617Z,99.90
2022-10-21T19:56:15.863Z,99.90
2022-10-21T19:58:48.650Z,99.90
2022-10-21T20:01:16.586Z,99.90
2022-10-21T20:03:45.198Z,99.90
2022-10-21T20:08:42.271Z,99.90
2022-10-21T20:11:10.292Z,99.90
2022-10-21T20:13:37.065Z,99.90
2022-10-21T20:16:04.033Z,99.90
2022-10-21T20:18:30.871Z,99.90
2022-10-21T20:20:57.704Z,99.90
2022-10-21T20:23:24.943Z,99.90
2022-10-21T20:25:58.571Z,99.90
2022-10-21T20:28:29.131Z,99.90
2022-10-21T20:30:59.933Z,99.90
2022-10-21T20:33:27.241Z,99.90
2022-10-21T20:35:54.063Z,99.90
2022-10-21T20:38:21.007Z,99.90
2022-10-21T20:40:54.523Z,99.90
2022-10-21T20:43:21.198Z,99.90
2022-10-21T20:45:48.005Z,99.90
2022-10-21T20:48:14.680Z,99.90
2022-10-21T20:50:41.404Z,99.90
2022-10-21T20:53:08.448Z,99.90
2022-10-21T20:55:35.158Z,99.90
2022-10-21T20:58:01.860Z,99.90
2022-10-21T21:00:28.788Z,99.90
2022-10-21T21:05:27.438Z,99.90
2022-10-21T21:07:54.357Z,99.90
2022-10-21T21:10:21.167Z,99.90
2022-10-21T21:12:48.249Z,99.90
2022-10-21T21:15:14.994Z,99.90
2022-10-21T21:17:41.918Z,99.90
2022-10-21T21:20:08.927Z,99.90
2022-10-21T21:22:36.840Z,99.90
2022-10-21T21:25:04.273Z,99.90
2022-10-21T21:27:31.376Z,99.90
2022-10-21T21:29:58.318Z,99.90
2022-10-21T21:32:25.166Z,99.90
2022-10-21T21:34:55.569Z,99.90
2022-10-21T21:37:22.701Z,99.90
2022-10-21T21:39:49.392Z,99.90
2022-10-21T21:42:16.176Z,99.90
2022-10-21T21:44:42.895Z,99.90
2022-10-21T21:47:10.033Z,99.90
2022-10-21T21:49:36.815Z,99.90
2022-10-21T21:52:04.132Z,99.90
2022-10-21T21:54:30.866Z,99.90
2022-10-21T21:57:26.357Z,99.90
2022-10-21T21:59:45.789Z,99.90
2022-10-21T22:02:13.072Z,99.90
2022-10-21T22:04:41.755Z,99.90
2022-10-21T22:07:08.505Z,99.90
2022-10-21T22:09:35.235Z,99.90
2022-10-21T22:12:01.991Z,99.90
2022-10-21T22:14:28.704Z,99.90
2022-10-21T22:16:55.402Z,99.90
2022-10-21T22:19:22.135Z,99.90
2022-10-21T22:21:49.168Z,99.90
2022-10-21T22:24:15.898Z,99.90
2022-10-21T22:26:42.803Z,99.90
2022-10-21T22:29:09.826Z,99.90
2022-10-21T22:31:36.619Z,99.90
2022-10-21T22:34:05.320Z,99.90
2022-10-21T22:36:34.798Z,99.90
2022-10-21T22:39:01.512Z,99.90
2022-10-21T22:41:28.234Z,99.90
2022-10-21T22:43:55.343Z,99.90
2022-10-21T22:46:33.434Z,99.90
2022-10-21T22:49:01.227Z,99.90
2022-10-21T22:51:28.019Z,99.90
2022-10-21T22:53:56.421Z,99.90
2022-10-21T22:56:24.786Z,99.90
2022-10-21T22:58:51.617Z,99.90
2022-10-21T23:01:18.378Z,99.90
2022-10-21T23:03:45.150Z,99.90
2022-10-21T23:06:11.976Z,99.90
2022-10-21T23:08:38.816Z,99.90
2022-10-21T23:11:05.738Z,99.90
2022-10-21T23:13:32.425Z,99.90
2022-10-21T23:15:59.179Z,99.90
2022-10-21T23:18:25.981Z,99.90
2022-10-21T23:20:52.754Z,99.90
2022-10-21T23:23:19.528Z,99.90
2022-10-21T23:25:46.192Z,99.90
2022-10-21T23:28:12.931Z,99.90
2022-10-21T23:30:40.795Z,99.90
2022-10-21T23:33:07.505Z,99.90
2022-10-21T23:35:34.191Z,99.90
2022-10-21T23:38:00.899Z,99.90
2022-10-21T23:40:27.959Z,99.90
2022-10-21T23:42:55.143Z,99.90
2022-10-21T23:45:21.845Z,99.90
2022-10-21T23:47:48.578Z,99.90
2022-10-21T23:50:15.573Z,99.90
2022-10-21T23:52:42.365Z,99.90
2022-10-21T23:55:09.336Z,99.90
2022-10-21T23:57:36.041Z,99.90
